Terminal Aerodrome Forecast
Issued by NWS

Home | Current Version | Previous Version | Text Only | Print | Product List | Glossary On
Versions: 1 2 3 4 5 6 7 8 9 10 11 12 13 14 15 16 17 18 19
000
FTUS42 KGSP 252323 CCA
TAFHKY
TAF COR
KHKY 252323Z 2600/2624 VRB03KT P6SM FEW060 SCT110
     FM260900 00000KT 4SM BR FEW045
      TEMPO 2609/2613 1SM BR BKN003
     FM261400 33003KT P6SM FEW045
     FM261600 05004KT P6SM SCT045
     FM262100 10004KT P6SM SCT045=

USA.gov is the U.S. government's official web portal to all federal, state and local government web resources and services.